Waynesville, OH

9:52 AM EDT on May 22, 2015 (GMT -0400)
Chadwick's Claim | | Change Station
CLOSE
Current Station
Personal Weather Station
Location: Waynesville, OH
Elevation: 1030 ft
Nearby Weather Stations

Elev 1030 ft 39.55 °N, 84.15 °W | Updated 24 seconds ago

Clear
Clear
60.4 °F
Feels Like 60.4 °F
N
0.0
Wind Variable Wind from NNE
Gusts 0.0 mph

Today
High -- | Low -- °F
--% Chance of Precip.
Yesterday
High -- | Low -- °F
Precip. -- in
6:16 AM 8:49 PM
Waxing Crescent, 21% visible
Pressure 30.19 in
Visibility 10.0 miles
Clouds Clear
Dew Point 53 °F
Humidity 76%
Rainfall 0.00 in
Snow Depth Not available.
UV 3 out of 12
Pollen 9.20 out of 12
Air Quality Not available.
Flu Activity Local Activity
METAR KMGY 221253Z AUTO 22007KT 10SM CLR 12/07 A3018 RMK AO2 SLP221 T01170072

More Conditions Fewer Conditions

Pressure 30.19 in
Visibility 10.0 miles
Clouds Clear
Dew Point 53 °F
Humidity 76%
Rainfall 0.00 in
Snow Depth Not available.
UV 3 out of 12
Pollen 9.20 out of 12
Air Quality Not available.
Flu Activity Local Activity
METAR KMGY 221253Z AUTO 22007KT 10SM CLR 12/07 A3018 RMK AO2 SLP221 T01170072

More Conditions Fewer Conditions

10-Day Weather Forecast

Almanac

Astronomy

May. 22, 2015 Rise Set
Actual Time
Civil Twilight
Nautical Twilight
Astronomical Twilight
Moon
Length of Visible Light
Length of Day
Tomorrow will be .
, % of the Moon is Illuminated

Today's Extremes

State Highs State Lows

Community

WunderPhotos

Upload Photos

1,823,217 photos uploaded!

WunderBlogs® & News

Nearby

Air Quality

  Air Quality AQ Index Pollutant
Not available.

Snow Depth

Station Depth Elevation

Earthquake Activity

City Distance Mag. Time & Date
Minimum magnitude displayed is 2.5.

Coastal Water Temperatures

Place Temperature

Stations

Nearby Weather Stations

Station Location Temp. Windchill Dew Point Humidity Wind Precip. Elev Updated Type